OICK  Khoram Abad  Airport

Iran

Add Bookmark
ICAO OICK
IATA KHD
Type Airport
Status Operational
Latitude
33° 26' 7" N
33.435398
Longitude
48° 16' 58" E
48.282902
Local (GMT +4.5 ) UTC
May 31, 2016 04:29 pm May 31, 2016 11:59
Sunrise-Sunset Local UTC
Begin Civil Twilight 05:38 am 01:08
Sunrise 06:06 am 01:36
Sunset 08:22 pm 15:52
End Civil Twilight 08:51 pm 16:21
VFR
VFR
MVFR
MVFR
IFR
IFR
LIFR
LIFR
Unknown
Unavailable

Current Weather

METAR Observed VFR
OICK 311100Z 29010KT CAVOK 29/M03 Q1012 Tue, May 31, 2016 @ 11:00 UTC
(59 Minutes ago)
Visual Flight Rules
Wind Visibility Conditions
290° at 10 knots (19 kph) 10 km or more
  • No significant weather
Temperatures Readings Precipitation
Current Temp
29°C
84°F
Dewpoint
-3°C
27°F
Humidity 12%
Altimeter 29.88" Hg
Sea Level Pressure 1,012 mb
Field Elevation
1,155 m
3,789 ft
None Recorded

Additional weather within a 92.6km radius of OICK

Map ICAO Location
OICJ 67.4km NE (040°)
VFR
VFR
MVFR
MVFR
IFR
IFR
LIFR
LIFR
Unknown
Unavailable
-
-

CheckWX.com is intended as a tool to help pilots better visualize weather data. It is not intended as a substitute for an official weather briefing obtained from a Flight Service Station. CheckWX.com does not meet the FAA requirements for an official pre-flight weather briefing. Therefore, it's important that pilots still call and obtain an official FSS pre-flight weather briefing.

© 2007-2016 CheckWX.com
11:59:58 UTC